createdAt,value
2022-08-19T00:00:08.348Z,22.16
2022-08-19T00:00:18.373Z,22.14
2022-08-19T00:00:28.372Z,22.12
2022-08-19T00:00:40.371Z,22.13
2022-08-19T00:00:48.348Z,22.09
2022-08-19T00:00:57.576Z,22.09
2022-08-19T00:01:08.356Z,22.14
2022-08-19T00:01:17.462Z,22.12
2022-08-19T00:01:28.982Z,22.12
2022-08-19T00:01:37.961Z,22.10
2022-08-19T00:01:53.471Z,22.07
2022-08-19T00:01:57.466Z,22.13
2022-08-19T00:02:07.436Z,22.14
2022-08-19T00:02:17.538Z,22.13
2022-08-19T00:02:27.428Z,21.99
2022-08-19T00:02:37.425Z,22.02
2022-08-19T00:02:50.443Z,22.02
2022-08-19T00:02:57.435Z,22.01
2022-08-19T00:03:07.430Z,22.09
2022-08-19T00:03:17.460Z,22.01
2022-08-19T00:03:27.419Z,22.09
2022-08-19T00:03:38.478Z,22.14
2022-08-19T00:03:47.541Z,22.06
2022-08-19T00:03:57.422Z,22.13
2022-08-19T00:04:07.444Z,22.13
2022-08-19T00:04:17.590Z,22.10
2022-08-19T00:04:27.530Z,22.10
2022-08-19T00:04:38.390Z,22.16
2022-08-19T00:04:48.450Z,22.22
2022-08-19T00:04:58.454Z,22.22
2022-08-19T00:05:07.422Z,22.09
2022-08-19T00:05:17.422Z,22.02
2022-08-19T00:05:27.410Z,22.07
2022-08-19T00:05:38.470Z,22.09
2022-08-19T00:05:47.411Z,22.12
2022-08-19T00:05:58.358Z,22.10
2022-08-19T00:06:07.428Z,22.04
2022-08-19T00:06:17.429Z,22.01
2022-08-19T00:06:27.548Z,22.13
2022-08-19T00:06:37.654Z,21.99
2022-08-19T00:06:47.412Z,22.06
2022-08-19T00:06:57.423Z,22.09
2022-08-19T00:07:07.435Z,22.10
2022-08-19T00:07:17.411Z,22.14
2022-08-19T00:07:27.414Z,22.16
2022-08-19T00:07:37.451Z,22.07
2022-08-19T00:07:48.411Z,22.17
2022-08-19T00:07:57.423Z,22.02
2022-08-19T00:08:07.401Z,22.09
2022-08-19T00:08:17.402Z,22.07
2022-08-19T00:08:27.426Z,22.10
2022-08-19T00:08:37.407Z,22.04
2022-08-19T00:08:47.411Z,22.14
2022-08-19T00:08:58.360Z,22.12
2022-08-19T00:09:07.395Z,22.07
2022-08-19T00:09:20.382Z,22.10
2022-08-19T00:09:27.409Z,22.07
2022-08-19T00:09:37.446Z,22.01
2022-08-19T00:09:47.408Z,22.07
2022-08-19T00:09:57.437Z,22.07
2022-08-19T00:10:07.405Z,22.06
2022-08-19T00:10:18.357Z,22.04
2022-08-19T00:10:27.415Z,22.01
2022-08-19T00:10:38.415Z,21.98
2022-08-19T00:10:47.402Z,21.98
2022-08-19T00:10:57.396Z,22.09
2022-08-19T00:11:07.386Z,22.09
2022-08-19T00:11:18.669Z,22.06
2022-08-19T00:11:27.384Z,22.01
2022-08-19T00:11:37.401Z,22.09
2022-08-19T00:11:47.397Z,22.01
2022-08-19T00:11:57.470Z,22.16
2022-08-19T00:12:07.394Z,22.04
2022-08-19T00:12:17.416Z,22.06
2022-08-19T00:12:27.380Z,22.09
2022-08-19T00:12:37.390Z,22.04
2022-08-19T00:12:47.423Z,22.02
2022-08-19T00:12:57.382Z,22.02
2022-08-19T00:13:07.406Z,21.92
2022-08-19T00:13:17.420Z,21.97
2022-08-19T00:13:27.465Z,22.02
2022-08-19T00:13:37.388Z,21.92
2022-08-19T00:13:48.360Z,21.98
2022-08-19T00:13:57.535Z,22.01
2022-08-19T00:14:07.396Z,21.94
2022-08-19T00:14:17.374Z,21.94
2022-08-19T00:14:27.378Z,21.94
2022-08-19T00:14:37.394Z,21.98
2022-08-19T00:14:47.945Z,22.07
2022-08-19T00:14:57.377Z,21.92
2022-08-19T00:15:07.402Z,22.04
2022-08-19T00:15:17.368Z,21.95
2022-08-19T00:15:27.375Z,22.06
2022-08-19T00:15:37.388Z,21.95
2022-08-19T00:15:47.373Z,21.98
2022-08-19T00:15:58.394Z,21.95
2022-08-19T00:16:07.390Z,21.98
2022-08-19T00:16:17.373Z,21.99
2022-08-19T00:16:27.380Z,21.92
2022-08-19T00:16:37.361Z,22.02
2022-08-19T00:16:47.364Z,21.98
2022-08-19T00:16:57.380Z,21.94
2022-08-19T00:17:07.363Z,21.91
2022-08-19T00:17:17.360Z,21.99
2022-08-19T00:17:27.386Z,21.97
2022-08-19T00:17:37.450Z,21.98
2022-08-19T00:17:47.372Z,21.90
2022-08-19T00:17:57.475Z,21.97
2022-08-19T00:18:07.364Z,21.98
2022-08-19T00:18:17.360Z,21.94
2022-08-19T00:18:27.396Z,21.88
2022-08-19T00:18:37.360Z,21.90
2022-08-19T00:18:47.363Z,21.97
2022-08-19T00:18:57.859Z,22.01
2022-08-19T00:19:07.542Z,21.99
2022-08-19T00:19:17.358Z,22.04
2022-08-19T00:19:27.391Z,21.94
2022-08-19T00:19:37.358Z,21.97
2022-08-19T00:19:47.371Z,21.85
2022-08-19T00:19:57.433Z,21.98
2022-08-19T00:20:07.360Z,21.91
2022-08-19T00:20:17.376Z,21.90
2022-08-19T00:20:27.418Z,21.85
2022-08-19T00:20:37.351Z,21.94
2022-08-19T00:20:47.870Z,21.90
2022-08-19T00:20:57.860Z,21.94
2022-08-19T00:21:07.905Z,21.94
2022-08-19T00:21:17.368Z,21.94
2022-08-19T00:21:27.344Z,21.92
2022-08-19T00:21:37.350Z,21.78
2022-08-19T00:21:47.891Z,21.85
2022-08-19T00:21:57.526Z,21.85
2022-08-19T00:22:07.364Z,21.90
2022-08-19T00:22:17.373Z,21.95
2022-08-19T00:22:27.349Z,21.85
2022-08-19T00:22:37.352Z,21.92
2022-08-19T00:22:47.382Z,21.83
2022-08-19T00:22:57.335Z,21.83
2022-08-19T00:23:07.356Z,21.88
2022-08-19T00:23:17.434Z,21.91
2022-08-19T00:23:27.337Z,21.85
2022-08-19T00:23:37.340Z,21.92
2022-08-19T00:23:47.337Z,21.92
2022-08-19T00:23:57.329Z,21.90
2022-08-19T00:24:07.362Z,21.79
2022-08-19T00:24:17.348Z,22.04
2022-08-19T00:24:27.354Z,21.85
2022-08-19T00:24:37.883Z,21.88
2022-08-19T00:24:50.774Z,21.79
2022-08-19T00:24:57.403Z,21.95
2022-08-19T00:25:07.413Z,21.90
2022-08-19T00:25:17.325Z,21.83
2022-08-19T00:25:30.115Z,21.88
2022-08-19T00:25:37.328Z,21.90
2022-08-19T00:25:48.826Z,21.90
2022-08-19T00:25:57.863Z,21.75
2022-08-19T00:26:07.361Z,21.91
2022-08-19T00:26:17.345Z,21.85
2022-08-19T00:26:27.341Z,21.97
2022-08-19T00:26:37.894Z,21.85
2022-08-19T00:26:47.340Z,21.94
2022-08-19T00:26:57.319Z,21.91
2022-08-19T00:27:25.709Z,21.92
2022-08-19T00:27:26.040Z,21.90
2022-08-19T00:27:27.426Z,21.81
2022-08-19T00:27:37.315Z,21.82
2022-08-19T00:27:47.325Z,21.90
2022-08-19T00:27:57.325Z,21.83
2022-08-19T00:28:07.317Z,21.98
2022-08-19T00:28:17.344Z,21.90
2022-08-19T00:28:29.872Z,21.91
2022-08-19T00:28:37.315Z,21.94
2022-08-19T00:28:48.022Z,21.92
2022-08-19T00:28:57.320Z,21.82
2022-08-19T00:29:07.317Z,21.91
2022-08-19T00:29:17.323Z,21.94
2022-08-19T00:29:29.868Z,21.81
2022-08-19T00:29:37.310Z,21.81
2022-08-19T00:29:47.333Z,21.94
2022-08-19T00:29:57.311Z,21.81
2022-08-19T00:30:07.336Z,21.92
2022-08-19T00:30:17.444Z,21.78
2022-08-19T00:30:27.305Z,21.94
2022-08-19T00:30:37.309Z,21.85
2022-08-19T00:30:47.322Z,21.92
2022-08-19T00:30:57.301Z,21.81
2022-08-19T00:31:07.313Z,21.90
2022-08-19T00:31:17.344Z,21.81
2022-08-19T00:31:27.313Z,21.91
2022-08-19T00:31:37.426Z,21.98
2022-08-19T00:31:47.301Z,21.81
2022-08-19T00:31:57.303Z,21.90
2022-08-19T00:32:07.315Z,21.83
2022-08-19T00:32:17.301Z,21.95
2022-08-19T00:32:27.302Z,21.85
2022-08-19T00:32:37.304Z,21.83
2022-08-19T00:32:47.834Z,21.88
2022-08-19T00:32:57.881Z,21.90
2022-08-19T00:33:07.301Z,21.92
2022-08-19T00:33:17.295Z,21.97
2022-08-19T00:33:27.402Z,21.91
2022-08-19T00:33:37.323Z,21.90
2022-08-19T00:33:47.290Z,21.74
2022-08-19T00:33:57.297Z,21.88
2022-08-19T00:34:07.295Z,21.79
2022-08-19T00:34:17.880Z,21.98
2022-08-19T00:34:27.302Z,21.90
2022-08-19T00:34:37.288Z,21.91
2022-08-19T00:34:47.987Z,21.90
2022-08-19T00:34:57.296Z,21.83
2022-08-19T00:35:07.288Z,21.79
2022-08-19T00:35:17.283Z,21.79
2022-08-19T00:35:27.336Z,21.90
2022-08-19T00:35:37.338Z,21.90
2022-08-19T00:35:47.369Z,21.88
2022-08-19T00:35:57.292Z,21.79
2022-08-19T00:36:07.286Z,21.79
2022-08-19T00:36:17.292Z,21.85
2022-08-19T00:36:27.305Z,21.81
2022-08-19T00:36:37.275Z,21.85
2022-08-19T00:36:47.287Z,21.76
2022-08-19T00:36:57.288Z,21.76
2022-08-19T00:37:07.867Z,21.92
2022-08-19T00:37:17.291Z,21.79
2022-08-19T00:37:27.314Z,21.82
2022-08-19T00:37:37.277Z,21.75
2022-08-19T00:37:47.289Z,21.79
2022-08-19T00:37:57.352Z,21.79
2022-08-19T00:38:07.278Z,21.78
2022-08-19T00:38:17.287Z,21.72
2022-08-19T00:38:37.036Z,21.91
2022-08-19T00:38:38.193Z,21.75
2022-08-19T00:38:47.294Z,21.78
2022-08-19T00:38:57.267Z,21.81
2022-08-19T00:39:07.267Z,21.79
2022-08-19T00:39:17.299Z,21.81
2022-08-19T00:39:27.268Z,21.82
2022-08-19T00:39:37.380Z,21.79
2022-08-19T00:39:49.259Z,21.74
2022-08-19T00:39:57.904Z,21.72
2022-08-19T00:40:07.340Z,21.69
2022-08-19T00:40:17.301Z,21.74
2022-08-19T00:40:27.261Z,21.81
2022-08-19T00:40:37.301Z,21.72
2022-08-19T00:40:47.260Z,21.69
2022-08-19T00:40:57.267Z,21.78
2022-08-19T00:41:07.273Z,21.82
2022-08-19T00:41:17.880Z,21.69
2022-08-19T00:41:27.258Z,21.74
2022-08-19T00:41:37.275Z,21.67
2022-08-19T00:41:47.988Z,21.66
2022-08-19T00:41:57.250Z,21.79
2022-08-19T00:42:07.276Z,21.67
2022-08-19T00:42:17.248Z,21.63
2022-08-19T00:42:27.259Z,21.76
2022-08-19T00:42:37.263Z,21.59
2022-08-19T00:42:47.948Z,21.78
2022-08-19T00:42:57.463Z,21.71
2022-08-19T00:43:07.258Z,21.72
2022-08-19T00:43:17.246Z,21.63
2022-08-19T00:43:27.264Z,21.75
2022-08-19T00:43:37.248Z,21.66
2022-08-19T00:43:47.262Z,21.67
2022-08-19T00:43:57.257Z,21.72
2022-08-19T00:44:09.871Z,21.69
2022-08-19T00:44:17.258Z,21.71
2022-08-19T00:44:27.462Z,21.59
2022-08-19T00:44:37.250Z,21.63
2022-08-19T00:44:47.252Z,21.74
2022-08-19T00:44:57.264Z,21.69
2022-08-19T00:45:07.247Z,21.74
2022-08-19T00:45:17.249Z,21.67
2022-08-19T00:45:27.269Z,21.67
2022-08-19T00:45:37.244Z,21.71
2022-08-19T00:45:47.293Z,21.72
2022-08-19T00:45:57.276Z,21.63
2022-08-19T00:46:07.238Z,21.54
2022-08-19T00:46:17.248Z,21.64
2022-08-19T00:46:27.246Z,21.71
2022-08-19T00:46:37.324Z,21.66
2022-08-19T00:46:55.652Z,21.71
2022-08-19T00:46:58.709Z,21.53
2022-08-19T00:47:07.877Z,21.66
2022-08-19T00:47:17.296Z,21.63
2022-08-19T00:47:27.237Z,21.63
2022-08-19T00:47:37.232Z,21.56
2022-08-19T00:47:47.249Z,21.61
2022-08-19T00:47:57.232Z,21.74
2022-08-19T00:48:11.763Z,21.60
2022-08-19T00:48:17.265Z,21.53
2022-08-19T00:48:27.239Z,21.61
2022-08-19T00:48:37.232Z,21.71
2022-08-19T00:48:47.235Z,21.54
2022-08-19T00:48:57.303Z,21.59
2022-08-19T00:49:07.234Z,21.63
2022-08-19T00:49:17.245Z,21.59
2022-08-19T00:49:27.232Z,21.59
2022-08-19T00:49:37.237Z,21.50
2022-08-19T00:49:47.307Z,21.66
2022-08-19T00:49:57.220Z,21.57
2022-08-19T00:50:07.227Z,21.61
2022-08-19T00:50:17.221Z,21.66
2022-08-19T00:50:27.218Z,21.72
2022-08-19T00:50:37.234Z,21.60
2022-08-19T00:50:51.890Z,21.60
2022-08-19T00:50:57.253Z,21.67
2022-08-19T00:51:07.885Z,21.71
2022-08-19T00:51:17.215Z,21.63
2022-08-19T00:51:27.218Z,21.61
2022-08-19T00:51:37.231Z,21.66
2022-08-19T00:51:47.214Z,21.56
2022-08-19T00:51:57.239Z,21.71
2022-08-19T00:52:07.246Z,21.60
2022-08-19T00:52:17.205Z,21.59
2022-08-19T00:52:27.237Z,21.61
2022-08-19T00:52:37.309Z,21.66
2022-08-19T00:52:47.898Z,21.60
2022-08-19T00:52:57.217Z,21.72
2022-08-19T00:53:07.205Z,21.63
2022-08-19T00:53:17.328Z,21.56
2022-08-19T00:53:27.208Z,21.71
2022-08-19T00:53:37.201Z,21.59
2022-08-19T00:53:47.205Z,21.64
2022-08-19T00:53:57.268Z,21.69
2022-08-19T00:54:07.204Z,21.56
2022-08-19T00:54:17.210Z,21.63
2022-08-19T00:54:28.271Z,21.69
2022-08-19T00:54:37.195Z,21.54
2022-08-19T00:54:51.991Z,21.60
2022-08-19T00:54:57.214Z,21.61
2022-08-19T00:55:07.203Z,21.60
2022-08-19T00:55:17.900Z,21.60
2022-08-19T00:55:27.207Z,21.60
2022-08-19T00:55:37.192Z,21.57
2022-08-19T00:55:47.213Z,21.60
2022-08-19T00:55:57.191Z,21.60
2022-08-19T00:56:07.325Z,21.71
2022-08-19T00:56:17.211Z,21.56
2022-08-19T00:56:27.190Z,21.69
2022-08-19T00:56:37.256Z,21.63
2022-08-19T00:56:47.287Z,21.67
2022-08-19T00:56:57.241Z,21.72
2022-08-19T00:57:07.244Z,21.76
2022-08-19T00:57:17.257Z,21.57
2022-08-19T00:57:27.183Z,21.61
2022-08-19T00:57:37.193Z,21.66
2022-08-19T00:57:47.215Z,21.57
2022-08-19T00:57:57.189Z,21.53
2022-08-19T00:58:07.886Z,21.56
2022-08-19T00:58:17.194Z,21.54
2022-08-19T00:58:27.181Z,21.59
2022-08-19T00:58:37.202Z,21.48
2022-08-19T00:58:47.188Z,21.63
2022-08-19T00:58:57.190Z,21.60
2022-08-19T00:59:07.193Z,21.56
2022-08-19T00:59:17.180Z,21.56
2022-08-19T01:00:00.566Z,21.50
2022-08-19T01:00:00.581Z,21.44
2022-08-19T01:00:00.807Z,21.50
2022-08-19T01:00:02.589Z,21.48
2022-08-19T01:00:07.310Z,21.42
2022-08-19T01:00:17.176Z,21.46
2022-08-19T01:00:27.180Z,21.54
2022-08-19T01:00:37.202Z,21.48
2022-08-19T01:00:47.180Z,21.54
2022-08-19T01:00:57.889Z,21.59
2022-08-19T01:01:07.180Z,21.50
2022-08-19T01:01:17.311Z,21.54
2022-08-19T01:01:27.238Z,21.53
2022-08-19T01:01:37.236Z,21.53
2022-08-19T01:01:47.933Z,21.48
2022-08-19T01:01:57.216Z,21.53
2022-08-19T01:02:07.165Z,21.44
2022-08-19T01:02:17.886Z,21.45
2022-08-19T01:02:27.194Z,21.46
2022-08-19T01:02:37.164Z,21.45
2022-08-19T01:02:47.248Z,21.53
2022-08-19T01:02:58.005Z,21.50
2022-08-19T01:03:07.211Z,21.48
2022-08-19T01:03:17.166Z,21.50
2022-08-19T01:03:27.304Z,21.45
2022-08-19T01:03:57.088Z,21.54
2022-08-19T01:03:57.511Z,21.45
2022-08-19T01:03:58.755Z,21.45
2022-08-19T01:04:07.154Z,21.34
2022-08-19T01:04:17.172Z,21.54
2022-08-19T01:04:27.152Z,21.51
2022-08-19T01:04:37.161Z,21.50
2022-08-19T01:04:47.193Z,21.46
2022-08-19T01:04:57.183Z,21.38
2022-08-19T01:05:07.879Z,21.41
2022-08-19T01:05:17.172Z,21.50
2022-08-19T01:05:27.148Z,21.42
2022-08-19T01:05:37.154Z,21.45
2022-08-19T01:05:47.182Z,21.36
2022-08-19T01:05:57.149Z,21.39
2022-08-19T01:06:07.150Z,21.44
2022-08-19T01:06:20.109Z,21.41
2022-08-19T01:06:27.426Z,21.34
2022-08-19T01:06:37.179Z,21.41
2022-08-19T01:06:47.152Z,21.42
2022-08-19T01:06:57.196Z,21.53
2022-08-19T01:07:07.158Z,21.53
2022-08-19T01:07:17.428Z,21.50
2022-08-19T01:07:27.153Z,21.41
2022-08-19T01:07:38.245Z,21.44
2022-08-19T01:07:47.160Z,21.46
2022-08-19T01:07:57.246Z,21.46
2022-08-19T01:08:07.144Z,21.44
2022-08-19T01:08:17.163Z,21.50
2022-08-19T01:08:27.150Z,21.46
2022-08-19T01:08:37.155Z,21.45
2022-08-19T01:08:47.137Z,21.46
2022-08-19T01:08:57.272Z,21.45
2022-08-19T01:09:07.159Z,21.48
2022-08-19T01:09:17.943Z,21.44
2022-08-19T01:09:27.137Z,21.32
2022-08-19T01:09:37.145Z,21.46
2022-08-19T01:09:47.134Z,21.35
2022-08-19T01:09:57.144Z,21.50
2022-08-19T01:10:07.146Z,21.53
2022-08-19T01:10:17.135Z,21.41
2022-08-19T01:10:27.892Z,21.41
2022-08-19T01:10:37.139Z,21.42
2022-08-19T01:10:47.128Z,21.32
2022-08-19T01:10:57.137Z,21.42
2022-08-19T01:11:07.134Z,21.38
2022-08-19T01:11:17.126Z,21.39
2022-08-19T01:11:27.904Z,21.39
2022-08-19T01:11:37.199Z,21.44
2022-08-19T01:11:47.124Z,21.41
2022-08-19T01:11:57.149Z,21.45
2022-08-19T01:12:07.182Z,21.41
2022-08-19T01:12:17.900Z,21.36
2022-08-19T01:12:27.157Z,21.45
2022-08-19T01:12:37.121Z,21.53
2022-08-19T01:12:47.203Z,21.38
2022-08-19T01:12:57.133Z,21.35
2022-08-19T01:13:07.124Z,21.39
2022-08-19T01:13:17.240Z,21.39
2022-08-19T01:13:27.881Z,21.42
2022-08-19T01:13:49.146Z,21.34
2022-08-19T01:13:50.084Z,21.27
2022-08-19T01:13:57.130Z,21.44
2022-08-19T01:14:07.122Z,21.48
2022-08-19T01:14:17.136Z,21.42
2022-08-19T01:14:27.113Z,21.32
2022-08-19T01:14:37.121Z,21.42
2022-08-19T01:14:47.140Z,21.38
2022-08-19T01:14:57.304Z,21.36
2022-08-19T01:15:07.108Z,21.42
2022-08-19T01:15:17.114Z,21.48
2022-08-19T01:15:27.106Z,21.41
2022-08-19T01:15:37.111Z,21.39
2022-08-19T01:15:47.121Z,21.36
2022-08-19T01:15:57.124Z,21.42
2022-08-19T01:16:07.116Z,21.39
2022-08-19T01:16:17.898Z,21.35
2022-08-19T01:16:27.105Z,21.41
2022-08-19T01:16:37.120Z,21.39
2022-08-19T01:16:47.155Z,21.29
2022-08-19T01:16:57.107Z,21.30
2022-08-19T01:17:07.137Z,21.39
2022-08-19T01:17:17.105Z,21.35
2022-08-19T01:17:27.119Z,21.42
2022-08-19T01:17:37.914Z,21.46
2022-08-19T01:17:47.108Z,21.32
2022-08-19T01:17:57.096Z,21.41
2022-08-19T01:18:07.132Z,21.30
2022-08-19T01:18:17.101Z,21.35
2022-08-19T01:18:27.120Z,21.36
2022-08-19T01:18:37.133Z,21.27
2022-08-19T01:18:47.093Z,21.27
2022-08-19T01:18:57.101Z,21.36
2022-08-19T01:19:07.206Z,21.24
2022-08-19T01:19:17.101Z,21.30
2022-08-19T01:19:27.207Z,21.34
2022-08-19T01:19:43.455Z,21.35
2022-08-19T01:19:47.100Z,21.27
2022-08-19T01:19:57.109Z,21.30
2022-08-19T01:20:07.168Z,21.42
2022-08-19T01:20:17.102Z,21.30
2022-08-19T01:20:27.901Z,21.36
2022-08-19T01:20:37.085Z,21.34
2022-08-19T01:20:47.079Z,21.32
2022-08-19T01:20:57.117Z,21.32
2022-08-19T01:21:07.089Z,21.32
2022-08-19T01:21:17.903Z,21.38
2022-08-19T01:21:27.108Z,21.30
2022-08-19T01:21:37.079Z,21.41
2022-08-19T01:21:47.900Z,21.26
2022-08-19T01:21:57.900Z,21.29
2022-08-19T01:22:13.120Z,21.39
2022-08-19T01:22:21.212Z,21.36
2022-08-19T01:22:32.826Z,21.39
2022-08-19T01:22:37.087Z,21.32
2022-08-19T01:22:47.145Z,21.27
2022-08-19T01:22:57.077Z,21.29
2022-08-19T01:23:07.099Z,21.42
2022-08-19T01:23:19.890Z,21.27
2022-08-19T01:23:27.069Z,21.29
2022-08-19T01:23:37.075Z,21.30
2022-08-19T01:23:47.086Z,21.38
2022-08-19T01:23:57.070Z,21.34
2022-08-19T01:24:07.077Z,21.24
2022-08-19T01:24:17.076Z,21.41
2022-08-19T01:24:27.065Z,21.29
2022-08-19T01:24:37.095Z,21.29
2022-08-19T01:24:50.027Z,21.29
2022-08-19T01:24:57.070Z,21.36
2022-08-19T01:25:09.515Z,21.38
2022-08-19T01:25:17.083Z,21.42
2022-08-19T01:25:27.063Z,21.38
2022-08-19T01:25:37.072Z,21.48
2022-08-19T01:25:47.057Z,21.44
2022-08-19T01:25:57.065Z,21.32
2022-08-19T01:26:07.182Z,21.53
2022-08-19T01:26:17.067Z,21.34
2022-08-19T01:26:27.059Z,21.35
2022-08-19T01:26:37.083Z,21.51
2022-08-19T01:26:47.056Z,21.38
2022-08-19T01:26:57.057Z,21.44
2022-08-19T01:27:07.902Z,21.38
2022-08-19T01:27:17.057Z,21.41
2022-08-19T01:27:29.913Z,21.30
2022-08-19T01:27:42.985Z,21.32
2022-08-19T01:27:47.053Z,21.36
2022-08-19T01:28:07.956Z,21.39
2022-08-19T01:28:09.267Z,21.35
2022-08-19T01:28:17.067Z,21.39
2022-08-19T01:28:39.890Z,21.41
2022-08-19T01:28:40.249Z,21.30
2022-08-19T01:28:47.139Z,21.38
2022-08-19T01:28:59.529Z,21.35
2022-08-19T01:29:07.132Z,21.35
2022-08-19T01:29:17.054Z,21.36
2022-08-19T01:29:27.053Z,21.35
2022-08-19T01:29:37.923Z,21.34
2022-08-19T01:29:47.062Z,21.32
2022-08-19T01:29:57.045Z,21.42
2022-08-19T01:30:07.097Z,21.35
2022-08-19T01:30:17.892Z,21.36
2022-08-19T01:30:27.050Z,21.38
2022-08-19T01:30:37.052Z,21.34
2022-08-19T01:30:51.220Z,21.38
2022-08-19T01:30:57.065Z,21.44
2022-08-19T01:31:08.217Z,21.41
2022-08-19T01:31:26.919Z,21.34
2022-08-19T01:31:27.865Z,21.29
2022-08-19T01:31:39.917Z,21.38
2022-08-19T01:31:47.049Z,21.29
2022-08-19T01:31:57.059Z,21.26
2022-08-19T01:32:07.038Z,21.45
2022-08-19T01:32:33.090Z,21.38
2022-08-19T01:32:33.850Z,21.34
2022-08-19T01:32:37.051Z,21.30
2022-08-19T01:32:47.100Z,21.34
2022-08-19T01:32:57.032Z,21.30
2022-08-19T01:33:07.033Z,21.35
2022-08-19T01:33:17.042Z,21.34
2022-08-19T01:33:27.024Z,21.32
2022-08-19T01:33:37.033Z,21.39
2022-08-19T01:33:47.037Z,21.42
2022-08-19T01:33:57.031Z,21.27
2022-08-19T01:34:07.038Z,21.34
2022-08-19T01:34:17.943Z,21.24
2022-08-19T01:34:27.306Z,21.36
2022-08-19T01:34:37.032Z,21.34
2022-08-19T01:34:47.042Z,21.38
2022-08-19T01:34:57.024Z,21.32
2022-08-19T01:35:07.053Z,21.29
2022-08-19T01:35:17.060Z,21.34
2022-08-19T01:35:27.016Z,21.32
2022-08-19T01:35:37.034Z,21.29
2022-08-19T01:35:47.903Z,21.21
2022-08-19T01:35:57.020Z,21.27
2022-08-19T01:36:07.044Z,21.29
2022-08-19T01:36:17.021Z,21.32
2022-08-19T01:36:27.024Z,21.36
2022-08-19T01:36:37.076Z,21.32
2022-08-19T01:36:47.010Z,21.34
2022-08-19T01:36:57.037Z,21.26
2022-08-19T01:37:07.020Z,21.35
2022-08-19T01:37:25.000Z,21.30
2022-08-19T01:37:27.185Z,21.32
2022-08-19T01:37:37.011Z,21.36
2022-08-19T01:37:47.006Z,21.35
2022-08-19T01:37:57.040Z,21.23
2022-08-19T01:38:07.005Z,21.36
2022-08-19T01:38:17.007Z,21.35
2022-08-19T02:09:57.746Z,21.04
2022-08-19T02:10:12.281Z,21.24
2022-08-19T02:10:17.671Z,21.05
2022-08-19T02:10:27.685Z,21.23
2022-08-19T02:10:37.672Z,21.21
2022-08-19T02:10:47.670Z,21.24
2022-08-19T02:10:57.845Z,21.11
2022-08-19T02:11:07.685Z,21.16
2022-08-19T02:11:17.674Z,21.06
2022-08-19T02:11:28.315Z,21.24
2022-08-19T02:11:37.687Z,21.08
2022-08-19T02:11:47.665Z,21.20
2022-08-19T02:11:57.666Z,21.16
2022-08-19T02:12:07.682Z,21.16
2022-08-19T02:12:17.662Z,21.13
2022-08-19T02:12:27.695Z,21.24
2022-08-19T02:12:37.675Z,21.14
2022-08-19T02:12:47.716Z,21.21
2022-08-19T02:12:57.718Z,21.26
2022-08-19T02:13:07.660Z,21.24
2022-08-19T02:13:17.997Z,21.14
2022-08-19T02:13:27.676Z,21.19
2022-08-19T02:13:37.701Z,21.19
2022-08-19T02:13:48.294Z,21.13
2022-08-19T02:13:57.669Z,21.13
2022-08-19T02:14:07.664Z,21.21
2022-08-19T02:14:17.676Z,21.26
2022-08-19T02:14:27.672Z,21.20
2022-08-19T02:14:37.654Z,21.16
2022-08-19T02:14:47.651Z,21.23
2022-08-19T02:14:57.669Z,21.17
2022-08-19T02:15:07.761Z,21.09
2022-08-19T02:15:17.653Z,21.19
2022-08-19T02:15:27.659Z,21.26
2022-08-19T02:15:37.654Z,21.20
2022-08-19T02:15:47.701Z,21.19
2022-08-19T02:15:57.660Z,21.23
2022-08-19T02:16:07.728Z,21.19
2022-08-19T02:16:17.652Z,21.19
2022-08-19T02:16:27.736Z,21.20
2022-08-19T02:16:37.658Z,21.20
2022-08-19T02:16:47.650Z,21.19
2022-08-19T02:16:57.695Z,21.24
2022-08-19T02:17:07.732Z,21.23
2022-08-19T02:17:17.656Z,21.27
2022-08-19T02:17:27.750Z,21.11
2022-08-19T02:17:37.641Z,21.24
2022-08-19T02:17:47.664Z,21.24
2022-08-19T02:17:57.639Z,21.19
2022-08-19T02:18:07.745Z,21.27
2022-08-19T02:18:17.656Z,21.11
2022-08-19T02:18:27.961Z,21.16
2022-08-19T02:18:37.641Z,21.32
2022-08-19T02:18:47.633Z,21.30
2022-08-19T02:18:57.640Z,21.23
2022-08-19T02:19:07.699Z,21.35
2022-08-19T02:19:17.651Z,21.24
2022-08-19T02:19:27.633Z,21.24
2022-08-19T02:19:40.940Z,21.19
2022-08-19T02:19:47.628Z,21.26
2022-08-19T02:19:57.639Z,21.24
2022-08-19T02:20:07.725Z,21.36
2022-08-19T02:20:17.722Z,21.23
2022-08-19T02:20:27.627Z,21.21
2022-08-19T02:20:37.649Z,21.36
2022-08-19T02:20:47.622Z,21.24
2022-08-19T02:20:57.633Z,21.27
2022-08-19T02:21:07.709Z,21.24
2022-08-19T02:21:17.624Z,21.30
2022-08-19T02:21:27.626Z,21.23
2022-08-19T02:21:37.650Z,21.27
2022-08-19T02:21:47.629Z,21.19
2022-08-19T02:21:57.632Z,21.19
2022-08-19T02:22:07.756Z,21.29
2022-08-19T02:22:17.620Z,21.35
2022-08-19T02:22:27.622Z,21.38
2022-08-19T02:22:37.627Z,21.17
2022-08-19T02:22:47.660Z,21.26
2022-08-19T02:22:57.642Z,21.30
2022-08-19T02:23:13.907Z,21.21
2022-08-19T02:23:17.634Z,21.30
2022-08-19T02:23:27.636Z,21.19
2022-08-19T02:23:37.680Z,21.23
2022-08-19T02:23:48.322Z,21.20
2022-08-19T02:23:57.640Z,21.24
2022-08-19T02:24:07.607Z,21.23
2022-08-19T02:24:17.636Z,21.16
2022-08-19T02:24:27.629Z,21.23
2022-08-19T02:24:37.613Z,21.17
2022-08-19T02:24:48.360Z,21.19
2022-08-19T02:24:57.609Z,21.20
2022-08-19T02:25:07.609Z,21.27
2022-08-19T02:25:17.609Z,21.23
2022-08-19T02:25:27.688Z,21.23
2022-08-19T02:25:37.612Z,21.16
2022-08-19T02:25:47.609Z,21.13
2022-08-19T02:25:57.615Z,21.21
2022-08-19T02:26:07.613Z,21.21
2022-08-19T02:26:17.615Z,21.21
2022-08-19T02:26:27.621Z,21.21
2022-08-19T02:26:37.603Z,21.29
2022-08-19T02:26:47.737Z,21.08
2022-08-19T02:26:57.617Z,21.13
2022-08-19T02:27:07.599Z,21.27
2022-08-19T02:27:17.626Z,21.24
2022-08-19T02:27:27.598Z,21.24
2022-08-19T02:27:37.605Z,21.21
2022-08-19T02:27:47.627Z,21.29
2022-08-19T02:27:57.605Z,21.16
2022-08-19T02:28:08.292Z,21.20
2022-08-19T02:28:18.921Z,21.06
2022-08-19T02:28:27.598Z,21.32
2022-08-19T02:28:37.607Z,21.27
2022-08-19T02:28:47.588Z,21.23
2022-08-19T02:28:57.599Z,21.17
2022-08-19T02:29:08.287Z,21.23
2022-08-19T02:29:17.587Z,21.21
2022-08-19T02:29:27.582Z,21.32
2022-08-19T02:29:37.712Z,21.23
2022-08-19T02:29:47.584Z,21.26
2022-08-19T02:29:57.588Z,21.24
2022-08-19T02:30:07.717Z,21.30
2022-08-19T02:30:17.588Z,21.27
2022-08-19T02:30:27.588Z,21.23
2022-08-19T02:30:37.640Z,21.23
2022-08-19T02:30:48.329Z,21.20
2022-08-19T02:30:57.580Z,21.29
2022-08-19T02:31:07.574Z,21.26
2022-08-19T02:31:17.599Z,21.09
2022-08-19T02:31:27.591Z,21.23
2022-08-19T02:31:37.582Z,21.24
2022-08-19T02:31:47.600Z,21.27
2022-08-19T02:31:57.584Z,21.27
2022-08-19T02:32:07.572Z,21.27
2022-08-19T02:32:17.586Z,21.24
2022-08-19T02:32:27.591Z,21.21
2022-08-19T02:32:37.573Z,21.24
2022-08-19T02:32:47.579Z,21.23
2022-08-19T02:32:57.909Z,21.17
2022-08-19T02:33:07.577Z,21.23
2022-08-19T02:33:17.574Z,21.21
2022-08-19T02:33:27.567Z,21.16
2022-08-19T02:33:38.288Z,21.19
2022-08-19T02:33:47.567Z,21.27
2022-08-19T02:33:57.568Z,21.34
2022-08-19T02:34:07.577Z,21.21
2022-08-19T02:34:17.573Z,21.30
2022-08-19T02:34:27.588Z,21.39
2022-08-19T02:34:37.564Z,21.27
2022-08-19T02:34:47.623Z,21.20
2022-08-19T02:34:57.613Z,21.34
2022-08-19T02:35:12.186Z,21.29
2022-08-19T02:35:17.571Z,21.20
2022-08-19T02:35:27.562Z,21.29
2022-08-19T02:35:37.556Z,21.36
2022-08-19T02:35:47.812Z,21.19
2022-08-19T02:35:58.340Z,21.23
2022-08-19T02:36:07.559Z,21.36
2022-08-19T02:36:21.280Z,21.21
2022-08-19T02:36:27.568Z,21.36
2022-08-19T02:36:37.554Z,21.32
2022-08-19T02:36:51.738Z,21.24
2022-08-19T02:37:03.099Z,21.29
2022-08-19T02:37:07.550Z,21.19
2022-08-19T02:37:17.554Z,21.36
2022-08-19T02:37:27.544Z,21.27
2022-08-19T02:37:37.562Z,21.35
2022-08-19T02:37:47.549Z,21.34
2022-08-19T02:37:57.569Z,21.38
2022-08-19T02:38:07.555Z,21.29
2022-08-19T02:38:17.555Z,21.42
2022-08-19T02:38:27.546Z,21.29
2022-08-19T02:38:37.568Z,21.36
2022-08-19T02:38:54.450Z,21.30
2022-08-19T02:38:57.546Z,21.24
2022-08-19T02:39:07.570Z,21.32
2022-08-19T02:39:17.549Z,21.27
2022-08-19T02:39:27.541Z,21.32
2022-08-19T02:39:37.577Z,21.35
2022-08-19T02:39:47.579Z,21.30
2022-08-19T02:39:57.641Z,21.19
2022-08-19T02:40:12.394Z,21.30
2022-08-19T02:40:17.544Z,21.29